createdAt,value
2018-01-17T16:20:09.378Z,99354.23
2018-01-17T16:22:37.696Z,99345.98
2018-01-17T16:25:06.805Z,99358.11
2018-01-17T16:27:35.122Z,99368.36
2018-01-17T16:30:03.478Z,99367.10
2018-01-17T16:32:31.781Z,99372.20
2018-01-17T16:35:00.178Z,99366.78
2018-01-17T16:37:28.496Z,99363.59
2018-01-17T16:39:56.837Z,99360.64
2018-01-17T16:42:25.254Z,99354.53
2018-01-17T16:44:54.358Z,99377.00
2018-01-17T16:47:22.686Z,99372.95
2018-01-17T16:49:51.024Z,99369.37
2018-01-17T16:52:19.340Z,99373.06
2018-01-17T16:54:47.672Z,99362.48
2018-01-17T16:57:15.981Z,99386.18
2018-01-17T16:59:44.318Z,99394.55
2018-01-17T17:02:12.631Z,99392.21
2018-01-17T17:04:41.055Z,99405.07
2018-01-17T17:07:09.509Z,99412.83
2018-01-17T17:09:37.837Z,99413.59
2018-01-17T17:12:06.145Z,99418.05
2018-01-17T17:14:34.477Z,99419.72
2018-01-17T17:17:02.789Z,99430.14
2018-01-17T17:19:31.118Z,99433.68
2018-01-17T17:21:59.430Z,99434.39
2018-01-17T17:24:27.757Z,99441.40
2018-01-17T17:26:56.061Z,99449.80
2018-01-17T17:29:24.401Z,99454.90
2018-01-17T17:31:52.710Z,99462.79
2018-01-17T17:34:21.041Z,99466.91
2018-01-17T17:36:49.378Z,99475.78
2018-01-17T17:39:17.697Z,99488.63
2018-01-17T17:41:46.009Z,99487.27
2018-01-17T17:44:14.341Z,99495.48
2018-01-17T17:46:42.654Z,99500.61
2018-01-17T17:49:10.988Z,99505.30
2018-01-17T17:51:39.293Z,99503.53
2018-01-17T17:54:07.632Z,99507.17
2018-01-17T17:56:35.957Z,99509.58
2018-01-17T17:59:04.262Z,99514.12
2018-01-17T18:01:32.589Z,99522.20
2018-01-17T18:04:00.938Z,99524.94
2018-01-17T18:06:29.261Z,99528.45
2018-01-17T18:08:57.576Z,99525.05
2018-01-17T18:11:25.914Z,99521.34
2018-01-17T18:13:54.222Z,99526.83
2018-01-17T18:16:22.555Z,99524.78
2018-01-17T18:18:50.868Z,99530.03
2018-01-17T18:21:19.196Z,99536.02
2018-01-17T18:23:47.510Z,99544.23
2018-01-17T18:26:16.813Z,99535.14
2018-01-17T18:28:45.138Z,99544.36
2018-01-17T18:31:13.465Z,99557.45
2018-01-17T18:33:41.791Z,99560.48
2018-01-17T18:36:10.121Z,99560.24
2018-01-17T18:38:38.442Z,99565.49
2018-01-17T18:41:06.779Z,99574.47
2018-01-17T18:43:35.094Z,99562.34
2018-01-17T18:46:03.534Z,99563.39
2018-01-17T18:48:31.856Z,99574.92
2018-01-17T18:51:00.193Z,99567.94
2018-01-17T18:53:28.506Z,99580.63
2018-01-17T18:55:56.870Z,99576.73
2018-01-17T18:58:25.197Z,99589.08
2018-01-17T19:00:53.534Z,99590.93
2018-01-17T19:03:21.853Z,99595.11
2018-01-17T19:05:51.172Z,99594.02
2018-01-17T19:08:19.490Z,99606.00
2018-01-17T19:10:48.237Z,99616.30
2018-01-17T19:13:16.587Z,99623.50
2018-01-17T19:15:45.894Z,99623.16
2018-01-17T19:18:14.210Z,99620.19
2018-01-17T19:20:42.550Z,99624.80
2018-01-17T19:23:10.866Z,99631.52
2018-01-17T19:25:39.208Z,99625.42
2018-01-17T19:28:07.579Z,99626.21
2018-01-17T19:30:35.865Z,99629.25
2018-01-17T19:33:04.178Z,99626.83
2018-01-17T19:35:32.520Z,99629.64
2018-01-17T19:38:00.838Z,99640.43
2018-01-17T19:40:29.180Z,99640.06
2018-01-17T19:42:57.494Z,99640.17
2018-01-17T19:45:25.829Z,99639.33
2018-01-17T19:47:54.154Z,99655.59
2018-01-17T19:50:22.490Z,99644.52
2018-01-17T19:52:50.810Z,99660.13
2018-01-17T19:55:19.145Z,99668.59
2018-01-17T19:57:47.474Z,99670.56
2018-01-17T20:00:15.860Z,99679.76
2018-01-17T20:02:44.143Z,99689.17
2018-01-17T20:05:12.461Z,99696.78
2018-01-17T20:07:40.797Z,99714.98
2018-01-17T20:10:09.117Z,99719.03
2018-01-17T20:12:37.450Z,99713.31
2018-01-17T20:15:05.762Z,99701.11
2018-01-17T20:17:34.103Z,99694.92
2018-01-17T20:20:02.423Z,99709.45
2018-01-17T20:22:36.330Z,99707.97
2018-01-17T20:25:04.646Z,99697.20
2018-01-17T20:27:32.994Z,99714.88
2018-01-17T20:30:01.312Z,99721.77
2018-01-17T20:32:29.633Z,99712.69
2018-01-17T20:34:57.945Z,99710.45
2018-01-17T20:37:26.278Z,99705.27
2018-01-17T20:39:55.149Z,99705.69
2018-01-17T20:42:23.535Z,99710.55
2018-01-17T20:44:51.833Z,99715.77
2018-01-17T20:47:20.169Z,99704.41
2018-01-17T20:49:48.538Z,99696.86
2018-01-17T20:52:16.821Z,99701.92
2018-01-17T20:54:45.137Z,99697.14
2018-01-17T20:57:13.479Z,99698.79
2018-01-17T20:59:41.788Z,99691.05
2018-01-17T21:02:11.007Z,99697.48
2018-01-17T21:04:39.327Z,99704.72
2018-01-17T21:07:07.666Z,99699.34
2018-01-17T21:09:35.989Z,99696.70
2018-01-17T21:12:04.323Z,99689.77
2018-01-17T21:14:32.655Z,99688.19
2018-01-17T21:17:01.865Z,99690.72
2018-01-17T21:19:30.181Z,99682.70
2018-01-17T21:21:58.521Z,99686.70
2018-01-17T21:24:27.537Z,99693.92
2018-01-17T21:26:55.877Z,99701.17
2018-01-17T21:29:24.194Z,99699.77
2018-01-17T21:31:52.533Z,99701.70
2018-01-17T21:34:20.849Z,99703.34
2018-01-17T21:36:49.181Z,99708.72
2018-01-17T21:39:17.501Z,99710.71
2018-01-17T21:41:46.143Z,99700.30
2018-01-17T21:44:20.269Z,99706.41
2018-01-17T21:46:48.598Z,99707.14
2018-01-17T21:49:16.909Z,99702.83
2018-01-17T21:51:45.246Z,99706.16
2018-01-17T21:54:13.568Z,99699.81
2018-01-17T21:56:41.902Z,99698.11
2018-01-17T21:59:10.218Z,99699.64
2018-01-17T22:01:38.553Z,99698.23
2018-01-17T22:04:06.874Z,99705.45
2018-01-17T22:06:35.209Z,99700.66
2018-01-17T22:09:03.534Z,99687.98
2018-01-17T22:11:31.873Z,99688.66
2018-01-17T22:14:00.186Z,99693.05
2018-01-17T22:16:28.497Z,99698.46
2018-01-17T22:18:56.839Z,99692.61
2018-01-17T22:21:25.154Z,99693.97
2018-01-17T22:23:53.498Z,99694.94
2018-01-17T22:26:21.805Z,99690.22
2018-01-17T22:28:50.142Z,99694.58
2018-01-17T22:31:18.462Z,99691.44
2018-01-17T22:33:46.799Z,99693.36
2018-01-17T22:36:15.118Z,99703.22
2018-01-17T22:38:43.454Z,99691.72
2018-01-17T22:41:11.770Z,99688.85
2018-01-17T22:43:40.114Z,99691.95
2018-01-17T22:46:09.325Z,99688.76
2018-01-17T22:48:37.662Z,99699.07
2018-01-17T22:51:05.978Z,99699.97
2018-01-17T22:53:34.318Z,99701.52
2018-01-17T22:56:02.638Z,99699.48
2018-01-17T22:58:30.974Z,99695.42
2018-01-17T23:00:59.294Z,99693.48
2018-01-17T23:03:27.642Z,99703.17
2018-01-17T23:05:55.952Z,99704.41
2018-01-17T23:08:24.289Z,99706.91
2018-01-17T23:10:52.605Z,99709.89
2018-01-17T23:13:20.943Z,99712.30
2018-01-17T23:15:49.253Z,99708.92
2018-01-17T23:18:17.585Z,99707.52
2018-01-17T23:20:45.903Z,99706.23
2018-01-17T23:23:14.232Z,99706.19
2018-01-17T23:25:42.547Z,99690.88
2018-01-17T23:28:10.880Z,99682.52
2018-01-17T23:30:39.189Z,99690.34
2018-01-17T23:33:07.525Z,99701.23
2018-01-17T23:35:35.838Z,99693.14
2018-01-17T23:38:04.201Z,99695.41
2018-01-17T23:40:32.487Z,99694.20
2018-01-17T23:43:00.821Z,99696.37
2018-01-17T23:45:29.802Z,99701.29
2018-01-17T23:47:58.137Z,99695.84
2018-01-17T23:50:26.449Z,99703.60
2018-01-17T23:52:54.785Z,99705.02
2018-01-17T23:55:23.093Z,99708.55
2018-01-17T23:57:51.430Z,99702.74
